Forside
METAR-TAF:

METAR-TAF

Lufthavne :

Toledo Express Airport

Toledo, Ohio, USA

Breddekreds: 41-35-19N, længdekreds: 083-48-05W, højde: 208 m

Aktuelle vejr

Denne rapport blev lavet for 38 minutter siden, kl. 01:52 UTC
Vind 5 kt fra syd
Temperatur 26°C
Fugtighed 61%
Tryk 1014 hPa
Sigt: 16.1 km
skyfri

METAR: KTOL 250152Z 19005KT 10SM CLR 26/18 A2994 RMK AO2 SLP134 T02610178

Tid: 22:30 (02:30 UTC)

Vejrudsigter

Denne rapport blev lavet for 3 timer og 5 minutter siden, kl. 23:25 UTC
Foreløbig gælder fra 25 på 00 UTC til 25 på 24 UTC
Vind 6 kt fra sydvest
Sigt: 10 km
Nogle få skyer i en højde af 6000 ft
Fra 25 på 0200 UTC
Vind 6 kt fra sydsydvest
Sigt: 10 km
Nogle få skyer i en højde af 25000 ft

TAF: KTOL 242325Z 2500/2524 23006KT P6SM FEW060 FM250200 21006KT P6SM FEW250

Vejrobservationer og prognoser fra mere end 4000 lufthavne (METAR og TAF).

De gule og røde prikker repræsenterer de meteorologiske stationer.

Flyt musen over at se navnet på stationen.

Så klik over at se vejr observationer og prognoser.

At skifte det kort: Klik på de grønne knapper med et sort kors for at zoome ind; på den grønne knap med en bindestreg for at zoome ud; eller på de grønne pile for tilstødende kort.


METAR-TAF: